Terminal Aerodrome Forecast
Issued by NWS Cleveland, OH

Home | Current Version | Previous Version | Graphics & Text | Print | Product List | Glossary Off
Versions: 1 2 3 4 5 6 7 8 9 10 11 12 13 14 15 16 17 18 19 20 21 22 23 24 25 26

679
FTUS41 KCLE 251745
TAFCLE
TAF
KCLE 251745Z 2518/2624 VRB04KT 5SM -SHRA SCT008 OVC040
      TEMPO 2518/2522 2SM -RA BR OVC008
     FM252200 34006KT 5SM -SHRA OVC008
     FM260000 30006KT 6SM -SHRA OVC008
     FM260500 30010KT P6SM OVC008
     FM261400 28010KT P6SM OVC015
     FM261900 28008KT P6SM SCT015 BKN120=

USA.gov is the U.S. government's official web portal to all federal, state and local government web resources and services.